Clancy, Montana
Current Conditions -  °F | °C
As of 4:53 AM on Monday 24 Nov 2014 (Local Time) from KHLN Reporting Station
Scattered Clouds Scattered Clouds  
Wind Chill: 26°   Ceiling: Unl
Heat Index: 35°   Visibility: 10mi
Dew Point: 21°   Wind: 14mph
Humidity: 57%   Direction: 280°W
Pressure: 30.04"   Gusts: 21mph
Location:  46.47°N, 111.97°W
Report Text: KHLN 241153Z 28012G18KT 10SM FEW045 SCT110 02/M06 A3004 RMK AO2 SLP208 60000 T00171061 10028 20011 51029
Loading
Personal Weather Stations






























Interactive Weather Map New forecast layout! Learn more

10-Day Weather Forecast

Advertisements
Track Severe Weather on mobile